This is the latest recevied weather packets stored in our database for station/object DL4MGC-10. If no packets are shown the sender has not sent any weather packets the latest 10 day(s).
| Time | Temp. | Humidity | Pressure | Rain* | Wind** | Luminosity | Snow |
|---|---|---|---|---|---|---|---|
| 1777968575 | 20.56° C | 66% | 1008.8 hPa | - | - | - | - |
| 1777967675 | 20.56° C | 67% | 1008.9 hPa | - | - | - | - |
| 1777966775 | 20° C | 70% | 1009 hPa | - | - | - | - |
| 1777965875 | 18.89° C | 71% | 1009.2 hPa | - | - | - | - |
| 1777964975 | 18.89° C | 71% | 1009.4 hPa | - | - | - | - |
| 1777964075 | 18.33° C | 71% | 1009.4 hPa | - | - | - | - |
| 1777963174 | 17.78° C | 73% | 1009.4 hPa | - | - | - | - |
| 1777962274 | 16.67° C | 74% | 1009.3 hPa | - | - | - | - |
| 1777961374 | 16.11° C | 75% | 1009.4 hPa | - | - | - | - |
| 1777960474 | 15° C | 78% | 1009.5 hPa | - | - | - | - |
| 1777959574 | 14.44° C | 80% | 1009.6 hPa | - | - | - | - |
| 1777958674 | 13.33° C | 82% | 1009.6 hPa | - | - | - | - |
| 1777957774 | 12.78° C | 83% | 1009.6 hPa | - | - | - | - |
| 1777956874 | 11.67° C | 87% | 1009.7 hPa | - | - | - | - |
| 1777955974 | 12.22° C | 85% | 1009.8 hPa | - | - | - | - |
| 1777955074 | 11.11° C | 87% | 1009.8 hPa | - | - | - | - |
| 1777954173 | 11.67° C | 86% | 1009.8 hPa | - | - | - | - |
| 1777953273 | 12.22° C | 84% | 1009.6 hPa | - | - | - | - |
| 1777952373 | 12.78° C | 82% | 1009.6 hPa | - | - | - | - |
| 1777951473 | 12.22° C | 85% | 1009.8 hPa | - | - | - | - |
| 1777950573 | 12.22° C | 84% | 1009.9 hPa | - | - | - | - |
| 1777949673 | 12.78° C | 83% | 1010.1 hPa | - | - | - | - |
| 1777948773 | 13.33° C | 81% | 1010.1 hPa | - | - | - | - |
| 1777947872 | 13.89° C | 80% | 1010.4 hPa | - | - | - | - |
| 1777946972 | 14.44° C | 79% | 1010.5 hPa | - | - | - | - |
* Rain since midnight (hover to see other rain measurements)
** Current wind speed in m/s (hover to see current wind gust speed)